createdAt,value
2018-07-07T00:01:51.127Z,4.73
2018-07-07T00:04:20.822Z,4.60
2018-07-07T00:06:50.748Z,4.73
2018-07-07T00:09:21.382Z,4.87
2018-07-07T00:11:51.606Z,4.83
2018-07-07T00:14:21.401Z,4.37
2018-07-07T00:16:51.537Z,4.23
2018-07-07T00:19:21.849Z,4.77
2018-07-07T00:21:52.168Z,4.63
2018-07-07T00:24:22.389Z,4.43
2018-07-07T00:26:52.420Z,4.50
2018-07-07T00:29:22.411Z,4.00
2018-07-07T00:31:52.332Z,4.57
2018-07-07T00:34:22.452Z,4.23
2018-07-07T00:36:52.986Z,4.40
2018-07-07T00:39:23.207Z,4.47
2018-07-07T00:41:53.122Z,4.50
2018-07-07T00:44:23.145Z,4.50
2018-07-07T00:46:53.155Z,3.90
2018-07-07T00:49:26.040Z,4.70
2018-07-07T00:51:56.349Z,4.63
2018-07-07T00:54:26.593Z,3.93
2018-07-07T00:56:57.020Z,4.13
2018-07-07T00:59:27.040Z,3.93
2018-07-07T01:01:56.627Z,4.53
2018-07-07T01:04:26.250Z,4.07
2018-07-07T01:06:56.561Z,4.27
2018-07-07T01:09:26.509Z,3.70
2018-07-07T01:11:56.394Z,4.27
2018-07-07T01:14:26.439Z,3.67
2018-07-07T01:16:56.830Z,4.10
2018-07-07T01:19:26.759Z,4.07
2018-07-07T01:21:56.963Z,3.43
2018-07-07T01:24:27.091Z,4.10
2018-07-07T01:26:57.409Z,3.57
2018-07-07T01:29:27.528Z,3.67
2018-07-07T01:31:57.140Z,3.50
2018-07-07T01:34:27.064Z,3.97
2018-07-07T01:36:56.969Z,4.20
2018-07-07T01:39:27.089Z,3.20
2018-07-07T01:41:57.200Z,3.73
2018-07-07T01:44:27.238Z,4.20
2018-07-07T01:46:57.324Z,4.00
2018-07-07T01:49:27.468Z,4.13
2018-07-07T01:51:57.374Z,4.00
2018-07-07T01:54:27.242Z,4.10
2018-07-07T01:56:57.810Z,3.40
2018-07-07T01:59:28.047Z,3.77
2018-07-07T02:01:58.230Z,4.60
2018-07-07T02:04:27.979Z,3.80
2018-07-07T02:06:58.190Z,3.90
2018-07-07T02:09:28.506Z,4.07
2018-07-07T02:11:58.420Z,3.63
2018-07-07T02:14:28.444Z,4.70
2018-07-07T02:16:58.147Z,3.80
2018-07-07T02:19:28.179Z,4.07
2018-07-07T02:21:58.182Z,4.23
2018-07-07T02:24:28.416Z,4.50
2018-07-07T02:26:58.521Z,4.10
2018-07-07T02:29:28.439Z,4.63
2018-07-07T02:31:58.561Z,4.47
2018-07-07T02:34:28.776Z,4.40
2018-07-07T02:36:58.799Z,4.67
2018-07-07T02:39:29.021Z,3.97
2018-07-07T02:41:59.446Z,4.87
2018-07-07T02:44:29.468Z,4.67
2018-07-07T02:46:59.800Z,4.30
2018-07-07T02:49:30.225Z,4.10
2018-07-07T02:52:00.641Z,4.70
2018-07-07T02:54:31.152Z,4.20
2018-07-07T02:57:01.209Z,4.00
2018-07-07T02:59:31.232Z,3.63
2018-07-07T03:02:01.112Z,4.20
2018-07-07T03:04:31.440Z,4.03
2018-07-07T03:07:01.129Z,4.53
2018-07-07T03:09:31.560Z,3.90
2018-07-07T03:12:02.102Z,3.67
2018-07-07T03:14:32.228Z,3.87
2018-07-07T03:17:02.861Z,3.73
2018-07-07T03:19:33.382Z,3.73
2018-07-07T03:22:03.510Z,3.90
2018-07-07T03:24:33.617Z,3.27
2018-07-07T03:27:04.671Z,3.80
2018-07-07T03:29:34.778Z,3.60
2018-07-07T03:32:04.583Z,3.50
2018-07-07T03:34:35.014Z,3.70
2018-07-07T03:37:05.943Z,3.70
2018-07-07T03:39:36.160Z,3.07
2018-07-07T03:42:07.259Z,3.50
2018-07-07T03:44:38.239Z,3.93
2018-07-07T03:47:08.560Z,3.00
2018-07-07T03:49:40.237Z,3.60
2018-07-07T03:52:10.546Z,2.90
2018-07-07T03:54:41.592Z,3.53
2018-07-07T03:57:12.735Z,3.77
2018-07-07T03:59:43.174Z,3.97
2018-07-07T04:02:13.228Z,3.70
2018-07-07T04:04:43.598Z,3.40
2018-07-07T04:07:14.875Z,3.20
2018-07-07T04:09:46.418Z,3.20
2018-07-07T04:12:17.158Z,3.00
2018-07-07T04:14:47.560Z,3.30
2018-07-07T04:17:17.494Z,3.03
2018-07-07T04:19:48.108Z,3.60
2018-07-07T04:22:19.159Z,3.40
2018-07-07T04:24:49.364Z,3.10
2018-07-07T04:27:19.580Z,3.00
2018-07-07T04:29:50.631Z,3.10
2018-07-07T04:32:21.388Z,3.07
2018-07-07T04:34:52.003Z,3.33
2018-07-07T04:37:22.730Z,3.27
2018-07-07T04:39:52.851Z,3.00
2018-07-07T04:42:23.187Z,3.30
2018-07-07T04:44:53.504Z,3.13
2018-07-07T04:47:23.917Z,3.13
2018-07-07T04:49:54.147Z,3.03
2018-07-07T04:52:24.612Z,3.27
2018-07-07T04:54:54.707Z,3.03
2018-07-07T04:57:25.633Z,2.90
2018-07-07T04:59:56.477Z,3.47
2018-07-07T05:02:27.426Z,3.37
2018-07-07T05:04:57.616Z,2.90
2018-07-07T05:07:27.759Z,3.00
2018-07-07T05:09:58.780Z,2.70
2018-07-07T05:12:29.110Z,2.90
2018-07-07T05:14:59.631Z,3.13
2018-07-07T05:17:30.063Z,3.20
2018-07-07T05:20:00.595Z,2.83
2018-07-07T05:22:31.116Z,2.67
2018-07-07T05:25:01.947Z,2.20
2018-07-07T05:27:32.171Z,2.57
2018-07-07T05:30:02.592Z,2.60
2018-07-07T05:32:33.139Z,2.17
2018-07-07T05:35:03.138Z,2.90
2018-07-07T05:37:33.370Z,2.87
2018-07-07T05:40:03.480Z,2.40
2018-07-07T05:42:33.598Z,2.53
2018-07-07T05:45:04.117Z,2.83
2018-07-07T05:47:34.162Z,2.90
2018-07-07T05:50:04.269Z,2.27
2018-07-07T05:52:34.593Z,2.77
2018-07-07T05:55:04.577Z,2.90
2018-07-07T05:57:35.034Z,3.20
2018-07-07T06:00:05.155Z,2.47
2018-07-07T06:02:35.479Z,2.43
2018-07-07T06:05:05.379Z,2.90
2018-07-07T06:07:35.620Z,2.77
2018-07-07T06:10:05.841Z,2.40
2018-07-07T06:12:36.384Z,2.83
2018-07-07T06:15:07.201Z,2.77
2018-07-07T06:17:37.637Z,3.20
2018-07-07T06:20:07.459Z,2.20
2018-07-07T06:22:37.979Z,2.67
2018-07-07T06:25:07.997Z,2.63
2018-07-07T06:27:38.834Z,2.97
2018-07-07T06:30:09.147Z,2.83
2018-07-07T06:32:43.153Z,2.50
2018-07-07T06:35:13.233Z,2.60
2018-07-07T06:37:43.388Z,2.53
2018-07-07T06:40:13.524Z,2.63
2018-07-07T06:42:44.140Z,2.43
2018-07-07T06:45:14.684Z,2.57
2018-07-07T06:47:44.700Z,2.93
2018-07-07T06:50:14.691Z,2.73
2018-07-07T06:52:45.245Z,2.53
2018-07-07T06:55:15.452Z,2.33
2018-07-07T06:57:45.473Z,3.00
2018-07-07T07:00:15.804Z,2.20
2018-07-07T07:02:46.647Z,2.00
2018-07-07T07:05:17.053Z,2.20
2018-07-07T07:07:47.379Z,2.23
2018-07-07T07:10:17.711Z,2.13
2018-07-07T07:12:48.752Z,1.70
2018-07-07T07:15:18.454Z,2.10
2018-07-07T07:17:48.168Z,2.40
2018-07-07T07:20:18.189Z,1.90
2018-07-07T07:22:48.241Z,2.23
2018-07-07T07:25:17.998Z,1.90
2018-07-07T07:27:47.810Z,2.40
2018-07-07T07:30:18.150Z,2.10
2018-07-07T07:32:47.763Z,2.30
2018-07-07T07:35:18.173Z,2.07
2018-07-07T07:37:48.511Z,1.97
2018-07-07T07:40:19.136Z,1.77
2018-07-07T07:42:49.051Z,2.10
2018-07-07T07:45:19.150Z,2.60
2018-07-07T07:47:49.175Z,2.30
2018-07-07T07:50:19.181Z,2.43
2018-07-07T07:52:49.839Z,1.93
2018-07-07T07:55:20.146Z,2.03
2018-07-07T07:57:50.680Z,2.70
2018-07-07T08:00:21.419Z,2.10
2018-07-07T08:02:51.542Z,2.67
2018-07-07T08:05:21.644Z,2.43
2018-07-07T08:07:52.593Z,2.13
2018-07-07T08:10:22.697Z,2.23
2018-07-07T08:12:53.451Z,2.03
2018-07-07T08:15:23.564Z,2.00
2018-07-07T08:17:53.679Z,2.37
2018-07-07T08:20:38.102Z,1.97
2018-07-07T08:23:09.177Z,2.80
2018-07-07T08:25:39.196Z,1.97
2018-07-07T08:28:09.198Z,2.63
2018-07-07T08:30:39.630Z,2.53
2018-07-07T08:33:10.364Z,2.63
2018-07-07T08:35:40.802Z,2.70
2018-07-07T08:38:15.116Z,2.50
2018-07-07T08:40:45.521Z,2.70
2018-07-07T08:43:18.423Z,2.57
2018-07-07T08:45:48.624Z,2.50
2018-07-07T08:48:19.793Z,2.60
2018-07-07T08:50:50.230Z,2.67
2018-07-07T08:53:20.240Z,2.57
2018-07-07T08:55:51.086Z,2.30
2018-07-07T08:58:21.181Z,2.23
2018-07-07T09:00:52.847Z,2.20
2018-07-07T09:03:23.061Z,2.07
2018-07-07T09:05:53.165Z,2.27
2018-07-07T09:08:23.237Z,2.33
2018-07-07T09:10:53.209Z,2.27
2018-07-07T09:13:23.229Z,2.07
2018-07-07T09:15:53.148Z,2.17
2018-07-07T09:18:23.241Z,2.30
2018-07-07T09:20:53.567Z,2.47
2018-07-07T09:23:23.794Z,1.93
2018-07-07T09:25:53.736Z,2.57
2018-07-07T09:28:23.829Z,2.03
2018-07-07T09:30:54.171Z,1.90
2018-07-07T09:33:24.362Z,2.83
2018-07-07T09:35:55.629Z,2.27
2018-07-07T09:38:26.149Z,2.10
2018-07-07T09:40:56.063Z,2.07
2018-07-07T09:43:26.190Z,2.10
2018-07-07T09:45:56.391Z,2.30
2018-07-07T09:48:27.843Z,2.20
2018-07-07T09:50:59.230Z,2.67
2018-07-07T09:53:29.234Z,2.63
2018-07-07T09:55:59.124Z,2.33
2018-07-07T09:58:29.249Z,2.77
2018-07-07T10:00:59.250Z,2.10
2018-07-07T10:03:29.809Z,2.40
2018-07-07T10:06:00.230Z,1.90
2018-07-07T10:08:30.350Z,1.93
2018-07-07T10:11:00.880Z,1.70
2018-07-07T10:13:31.297Z,1.90
2018-07-07T10:16:01.637Z,2.30
2018-07-07T10:18:31.659Z,1.90
2018-07-07T10:21:02.036Z,2.33
2018-07-07T10:23:32.189Z,2.10
2018-07-07T10:26:02.495Z,2.00
2018-07-07T10:28:32.729Z,2.20
2018-07-07T10:31:03.555Z,2.37
2018-07-07T10:33:33.717Z,2.00
2018-07-07T10:36:04.825Z,2.17
2018-07-07T10:38:35.245Z,2.00
2018-07-07T10:41:05.571Z,1.87
2018-07-07T10:43:35.793Z,2.07
2018-07-07T10:46:05.557Z,1.80
2018-07-07T10:48:36.651Z,1.93
2018-07-07T10:51:07.819Z,2.23
2018-07-07T10:53:38.128Z,1.67
2018-07-07T10:56:08.551Z,1.50
2018-07-07T10:58:39.191Z,1.90
2018-07-07T11:01:09.402Z,1.80
2018-07-07T11:03:40.140Z,1.87
2018-07-07T11:06:10.660Z,1.73
2018-07-07T11:08:41.192Z,2.02
2018-07-07T11:11:11.612Z,1.20
2018-07-07T11:13:42.468Z,1.63
2018-07-07T11:16:12.370Z,1.60
2018-07-07T11:18:42.976Z,1.90
2018-07-07T11:21:13.306Z,2.00
2018-07-07T11:23:43.452Z,1.70
2018-07-07T11:26:14.164Z,1.60
2018-07-07T11:28:45.209Z,1.70
2018-07-07T11:31:15.123Z,1.93
2018-07-07T11:33:45.349Z,1.50
2018-07-07T11:36:15.845Z,1.50
2018-07-07T11:38:46.605Z,1.80
2018-07-07T11:41:25.124Z,1.57
2018-07-07T11:43:56.056Z,1.73
2018-07-07T11:46:26.778Z,1.90
2018-07-07T11:48:57.033Z,1.27
2018-07-07T11:51:27.121Z,1.60
2018-07-07T11:53:57.546Z,1.57
2018-07-07T11:56:27.462Z,1.33
2018-07-07T11:58:58.210Z,1.93
2018-07-07T12:01:29.149Z,1.30
2018-07-07T12:03:59.913Z,2.10
2018-07-07T12:06:29.801Z,1.83
2018-07-07T12:09:03.183Z,1.30
2018-07-07T12:11:33.658Z,1.33
2018-07-07T12:14:05.470Z,1.50
2018-07-07T12:16:35.591Z,1.30
2018-07-07T12:19:09.737Z,1.20
2018-07-07T12:21:39.606Z,1.70
2018-07-07T12:24:09.433Z,2.00
2018-07-07T12:26:40.152Z,1.60
2018-07-07T12:29:09.889Z,1.17
2018-07-07T12:31:40.084Z,1.60
2018-07-07T12:34:11.122Z,1.63
2018-07-07T12:36:41.379Z,1.73
2018-07-07T12:39:11.574Z,1.60
2018-07-07T12:41:41.586Z,1.27
2018-07-07T12:44:14.992Z,1.70
2018-07-07T12:46:45.406Z,1.30
2018-07-07T12:49:15.418Z,1.33
2018-07-07T12:51:46.072Z,1.20
2018-07-07T12:54:16.504Z,1.30
2018-07-07T12:56:49.591Z,1.63
2018-07-07T12:59:20.410Z,1.60
2018-07-07T13:01:51.350Z,1.20
2018-07-07T13:04:21.671Z,1.20
2018-07-07T13:06:51.480Z,1.10
2018-07-07T13:09:20.883Z,1.40
2018-07-07T13:11:50.385Z,1.30
2018-07-07T13:14:19.896Z,1.40
2018-07-07T13:16:49.230Z,1.10
2018-07-07T13:19:19.106Z,1.07
2018-07-07T13:21:48.611Z,1.40
2018-07-07T13:24:18.221Z,1.27
2018-07-07T13:26:47.880Z,1.30
2018-07-07T13:29:17.440Z,1.23
2018-07-07T13:31:46.940Z,1.15
2018-07-07T13:34:16.946Z,1.30
2018-07-07T13:36:46.450Z,1.00
2018-07-07T13:39:16.059Z,1.20
2018-07-07T13:41:46.187Z,1.40
2018-07-07T13:44:17.737Z,1.07
2018-07-07T13:46:48.062Z,1.07
2018-07-07T13:49:18.621Z,1.00
2018-07-07T13:51:53.206Z,1.20
2018-07-07T13:57:03.276Z,1.10
2018-07-07T13:59:34.027Z,1.40
2018-07-07T14:02:03.613Z,1.00
2018-07-07T14:04:33.118Z,1.30
2018-07-07T14:07:02.525Z,1.23
2018-07-07T14:09:32.547Z,1.20
2018-07-07T14:12:02.454Z,1.10
2018-07-07T14:14:32.058Z,1.40
2018-07-07T14:17:01.820Z,1.00
2018-07-07T14:19:31.807Z,0.80
2018-07-07T14:22:01.507Z,1.40
2018-07-07T14:24:30.909Z,0.93
2018-07-07T14:27:00.735Z,1.40
2018-07-07T14:29:30.529Z,1.40
2018-07-07T14:32:00.546Z,1.20
2018-07-07T14:34:30.558Z,1.60
2018-07-07T14:37:00.585Z,1.37
2018-07-07T14:39:35.203Z,1.30
2018-07-07T14:42:09.140Z,1.40
2018-07-07T14:44:39.323Z,1.30
2018-07-07T14:47:09.770Z,1.70
2018-07-07T14:49:39.384Z,1.57
2018-07-07T14:52:09.894Z,1.90
2018-07-07T14:54:39.595Z,1.40
2018-07-07T14:57:10.234Z,1.47
2018-07-07T14:59:40.168Z,1.20
2018-07-07T15:02:10.369Z,1.30
2018-07-07T15:04:40.709Z,1.30
2018-07-07T15:07:11.030Z,1.50
2018-07-07T15:09:41.147Z,1.43
2018-07-07T15:12:11.369Z,1.67
2018-07-07T15:14:41.717Z,1.50
2018-07-07T15:17:12.108Z,1.60
2018-07-07T15:19:42.432Z,1.60
2018-07-07T15:22:12.549Z,1.53
2018-07-07T15:24:42.565Z,1.40
2018-07-07T15:27:12.998Z,1.00
2018-07-07T15:29:43.108Z,1.30
2018-07-07T15:32:13.130Z,1.20
2018-07-07T15:34:43.259Z,1.30
2018-07-07T15:37:13.253Z,1.40
2018-07-07T15:39:43.589Z,1.30
2018-07-07T15:42:13.617Z,1.67
2018-07-07T15:44:44.657Z,1.30
2018-07-07T15:47:14.761Z,1.23
2018-07-07T15:49:45.006Z,1.83
2018-07-07T15:52:15.432Z,1.90
2018-07-07T15:54:45.651Z,1.47
2018-07-07T15:57:16.167Z,1.73
2018-07-07T15:59:46.180Z,1.50
2018-07-07T16:02:16.625Z,1.73
2018-07-07T16:04:48.590Z,1.53
2018-07-07T16:07:19.211Z,1.50
2018-07-07T16:09:49.464Z,1.30
2018-07-07T16:12:19.527Z,1.67
2018-07-07T16:14:49.652Z,1.30
2018-07-07T16:17:19.470Z,1.50
2018-07-07T16:19:49.595Z,1.77
2018-07-07T16:22:20.231Z,1.63
2018-07-07T16:24:50.441Z,1.73
2018-07-07T16:27:20.463Z,1.33
2018-07-07T16:29:50.354Z,1.30
2018-07-07T16:32:20.491Z,1.67
2018-07-07T16:34:50.412Z,1.70
2018-07-07T16:37:20.619Z,1.63
2018-07-07T16:39:50.439Z,1.57
2018-07-07T16:42:21.172Z,1.50
2018-07-07T16:44:51.199Z,1.60
2018-07-07T16:47:20.809Z,1.43
2018-07-07T16:49:51.121Z,1.93
2018-07-07T16:52:21.134Z,1.80
2018-07-07T16:54:51.452Z,1.60
2018-07-07T16:57:22.710Z,1.50
2018-07-07T16:59:53.453Z,1.90
2018-07-07T17:02:23.764Z,1.90
2018-07-07T17:04:53.767Z,2.20
2018-07-07T17:07:24.410Z,2.27
2018-07-07T17:09:54.638Z,2.43
2018-07-07T17:12:24.966Z,2.80
2018-07-07T17:14:55.782Z,2.15
2018-07-07T17:17:26.532Z,2.45
2018-07-07T17:19:57.238Z,1.90
2018-07-07T17:22:27.669Z,1.73
2018-07-07T17:24:58.004Z,2.03
2018-07-07T17:27:27.713Z,2.02
2018-07-07T17:29:59.151Z,2.00
2018-07-07T17:32:29.596Z,2.43
2018-07-07T17:34:59.902Z,2.57
2018-07-07T17:37:30.147Z,3.15
2018-07-07T17:40:00.588Z,2.40
2018-07-07T17:42:30.974Z,2.63
2018-07-07T17:45:02.244Z,2.50
2018-07-07T17:47:32.545Z,3.10
2018-07-07T17:50:03.998Z,3.63
2018-07-07T17:52:35.459Z,4.00
2018-07-07T17:55:07.508Z,3.05
2018-07-07T17:57:38.575Z,2.55
2018-07-07T18:00:09.244Z,1.83
2018-07-07T18:02:39.514Z,2.60
2018-07-07T18:05:10.157Z,2.47
2018-07-07T18:07:40.462Z,2.10
2018-07-07T18:10:10.680Z,2.00
2018-07-07T18:12:41.217Z,2.40
2018-07-07T18:15:11.975Z,2.30
2018-07-07T18:17:43.090Z,2.30
2018-07-07T18:20:13.111Z,2.07
2018-07-07T18:22:43.138Z,2.30
2018-07-07T18:25:13.649Z,2.60
2018-07-07T18:27:44.087Z,2.30
2018-07-07T18:30:15.626Z,2.37
2018-07-07T18:32:46.068Z,2.00
2018-07-07T18:35:16.386Z,2.57
2018-07-07T18:37:48.502Z,2.83
2018-07-07T18:40:18.570Z,2.33
2018-07-07T18:42:48.063Z,2.70
2018-07-07T18:45:17.675Z,2.27
2018-07-07T18:47:48.097Z,2.63
2018-07-07T18:50:18.121Z,2.30
2018-07-07T18:52:47.902Z,2.40
2018-07-07T18:55:17.742Z,2.37
2018-07-07T18:57:47.445Z,2.97
2018-07-07T19:00:17.057Z,2.60
2018-07-07T19:02:51.693Z,1.90
2018-07-07T19:05:21.716Z,2.03
2018-07-07T19:07:52.141Z,2.57
2018-07-07T19:10:22.550Z,2.80
2018-07-07T19:12:52.569Z,2.60
2018-07-07T19:15:23.253Z,3.30
2018-07-07T19:17:53.919Z,2.60
2018-07-07T19:20:27.842Z,2.70
2018-07-07T19:23:03.178Z,2.63
2018-07-07T19:25:39.142Z,2.37
2018-07-07T19:28:10.815Z,2.53
2018-07-07T19:30:41.839Z,2.70
2018-07-07T19:33:20.574Z,3.07
2018-07-07T19:35:55.484Z,2.60
2018-07-07T19:38:27.767Z,2.83
2018-07-07T19:41:05.151Z,2.47
2018-07-07T19:43:37.008Z,2.70
2018-07-07T19:46:08.693Z,2.70
2018-07-07T19:48:39.502Z,3.20
2018-07-07T19:51:29.248Z,2.43
2018-07-07T19:54:01.554Z,2.30
2018-07-07T19:56:35.451Z,2.33
2018-07-07T19:59:07.206Z,3.63
2018-07-07T20:01:40.497Z,2.53
2018-07-07T20:04:11.132Z,2.33
2018-07-07T20:06:43.199Z,2.80
2018-07-07T20:09:17.673Z,3.10
2018-07-07T20:11:52.753Z,3.50
2018-07-07T20:14:27.592Z,3.97
2018-07-07T20:17:06.010Z,4.50
2018-07-07T20:19:46.498Z,4.37
2018-07-07T20:22:19.900Z,4.03
2018-07-07T20:24:55.217Z,3.90
2018-07-07T20:27:32.192Z,4.13
2018-07-07T20:30:07.446Z,3.33
2018-07-07T20:32:43.175Z,3.43
2018-07-07T20:35:14.371Z,4.17
2018-07-07T20:37:46.830Z,3.10
2018-07-07T20:40:18.747Z,3.73
2018-07-07T20:42:49.067Z,3.87
2018-07-07T20:45:20.644Z,4.00
2018-07-07T20:47:52.602Z,3.83
2018-07-07T20:50:22.804Z,3.37
2018-07-07T20:52:59.599Z,3.63
2018-07-07T20:55:34.217Z,3.70
2018-07-07T20:58:07.389Z,3.70
2018-07-07T21:00:49.748Z,4.07
2018-07-07T21:03:25.767Z,3.70
2018-07-07T21:05:58.140Z,3.43
2018-07-07T21:08:33.580Z,3.47
2018-07-07T21:11:10.587Z,2.77
2018-07-07T21:13:43.036Z,3.50
2018-07-07T21:19:02.526Z,3.07
2018-07-07T21:21:40.622Z,2.63
2018-07-07T21:24:13.622Z,2.60
2018-07-07T21:26:47.631Z,3.43
2018-07-07T21:29:20.844Z,2.60
2018-07-07T21:31:54.098Z,2.87
2018-07-07T21:34:26.475Z,2.80
2018-07-07T21:37:00.066Z,2.67
2018-07-07T21:39:35.446Z,3.10
2018-07-07T21:42:10.152Z,2.57
2018-07-07T21:44:43.360Z,2.70
2018-07-07T21:47:16.242Z,3.23
2018-07-07T21:49:52.802Z,2.53
2018-07-07T21:52:31.705Z,2.77
2018-07-07T21:55:02.788Z,2.60
2018-07-07T21:57:38.290Z,2.73
2018-07-07T22:00:12.940Z,2.90
2018-07-07T22:02:48.309Z,3.10
2018-07-07T22:05:22.888Z,2.87
2018-07-07T22:07:53.246Z,2.93
2018-07-07T22:10:26.218Z,2.70
2018-07-07T22:12:57.362Z,2.90
2018-07-07T22:15:29.006Z,2.87
2018-07-07T22:18:00.058Z,2.63
2018-07-07T22:20:38.469Z,2.90
2018-07-07T22:23:08.790Z,3.33
2018-07-07T22:25:39.643Z,3.83
2018-07-07T22:28:11.888Z,3.10
2018-07-07T22:30:42.210Z,3.23
2018-07-07T22:33:16.028Z,3.03
2018-07-07T22:35:50.461Z,3.27
2018-07-07T22:38:25.185Z,3.00
2018-07-07T22:40:55.803Z,3.20
2018-07-07T22:43:26.237Z,3.03
2018-07-07T22:45:57.559Z,3.53
2018-07-07T22:48:28.508Z,3.07
2018-07-07T22:50:59.969Z,3.20
2018-07-07T22:53:33.785Z,3.00
2018-07-07T22:56:04.484Z,3.70
2018-07-07T22:58:35.131Z,2.97
2018-07-07T23:01:06.169Z,3.83
2018-07-07T23:03:36.579Z,3.70
2018-07-07T23:06:08.147Z,4.03
2018-07-07T23:08:38.370Z,4.10
2018-07-07T23:11:08.786Z,3.77
2018-07-07T23:13:40.045Z,3.80
2018-07-07T23:16:11.087Z,3.70
2018-07-07T23:18:41.812Z,4.00
2018-07-07T23:21:16.746Z,3.73
2018-07-07T23:23:47.387Z,4.03
2018-07-07T23:26:17.830Z,4.10
2018-07-07T23:28:48.111Z,4.20
2018-07-07T23:31:19.068Z,4.60
2018-07-07T23:33:49.189Z,4.20
2018-07-07T23:36:19.229Z,4.23
2018-07-07T23:38:49.715Z,3.50
2018-07-07T23:41:20.146Z,3.80
2018-07-07T23:43:50.300Z,3.90
2018-07-07T23:46:20.895Z,4.20
2018-07-07T23:48:51.225Z,4.27
2018-07-07T23:51:21.447Z,3.70
2018-07-07T23:53:51.468Z,4.17
2018-07-07T23:56:21.986Z,4.23
2018-07-07T23:58:52.412Z,4.40
